sensor_id;sensor_type;location;lat;lon;timestamp;P1;durP1;ratioP1;P2;durP2;ratioP2
37905;SDS011;23739;51.448;6.674;2023-09-19T00:00:30;6.57;;;2.20;;
37905;SDS011;23739;51.448;6.674;2023-09-19T00:02:57;10.50;;;2.55;;
37905;SDS011;23739;51.448;6.674;2023-09-19T00:05:26;8.13;;;2.40;;
37905;SDS011;23739;51.448;6.674;2023-09-19T00:07:53;11.73;;;2.10;;
37905;SDS011;23739;51.448;6.674;2023-09-19T00:10:22;9.07;;;2.45;;
37905;SDS011;23739;51.448;6.674;2023-09-19T00:12:50;9.60;;;1.60;;
37905;SDS011;23739;51.448;6.674;2023-09-19T00:15:23;10.40;;;2.00;;
37905;SDS011;23739;51.448;6.674;2023-09-19T00:17:55;7.03;;;1.80;;
37905;SDS011;23739;51.448;6.674;2023-09-19T00:20:22;9.43;;;2.20;;
37905;SDS011;23739;51.448;6.674;2023-09-19T00:22:51;6.10;;;1.90;;
37905;SDS011;23739;51.448;6.674;2023-09-19T00:25:18;14.10;;;2.88;;
37905;SDS011;23739;51.448;6.674;2023-09-19T00:27:45;15.15;;;3.05;;
37905;SDS011;23739;51.448;6.674;2023-09-19T00:30:13;9.75;;;2.67;;
37905;SDS011;23739;51.448;6.674;2023-09-19T00:32:41;8.05;;;2.13;;
37905;SDS011;23739;51.448;6.674;2023-09-19T00:35:08;7.63;;;2.15;;
37905;SDS011;23739;51.448;6.674;2023-09-19T00:37:35;9.45;;;2.10;;
37905;SDS011;23739;51.448;6.674;2023-09-19T00:40:02;8.60;;;2.20;;
37905;SDS011;23739;51.448;6.674;2023-09-19T00:42:30;8.98;;;2.30;;
37905;SDS011;23739;51.448;6.674;2023-09-19T00:44:56;10.88;;;2.17;;
37905;SDS011;23739;51.448;6.674;2023-09-19T00:47:22;12.88;;;2.42;;
37905;SDS011;23739;51.448;6.674;2023-09-19T00:49:48;9.93;;;1.85;;
37905;SDS011;23739;51.448;6.674;2023-09-19T00:52:14;10.13;;;2.13;;
37905;SDS011;23739;51.448;6.674;2023-09-19T00:54:44;11.18;;;2.38;;
37905;SDS011;23739;51.448;6.674;2023-09-19T00:57:11;10.93;;;2.67;;
37905;SDS011;23739;51.448;6.674;2023-09-19T00:59:37;14.27;;;2.88;;
37905;SDS011;23739;51.448;6.674;2023-09-19T01:02:03;8.57;;;1.83;;
37905;SDS011;23739;51.448;6.674;2023-09-19T01:04:29;7.57;;;2.03;;
37905;SDS011;23739;51.448;6.674;2023-09-19T01:06:56;7.20;;;1.75;;
37905;SDS011;23739;51.448;6.674;2023-09-19T01:09:23;9.90;;;2.03;;
37905;SDS011;23739;51.448;6.674;2023-09-19T01:11:50;10.15;;;2.47;;
37905;SDS011;23739;51.448;6.674;2023-09-19T01:17:05;10.35;;;3.35;;
37905;SDS011;23739;51.448;6.674;2023-09-19T01:30:13;10.82;;;2.20;;
37905;SDS011;23739;51.448;6.674;2023-09-19T01:32:40;9.77;;;2.22;;
37905;SDS011;23739;51.448;6.674;2023-09-19T01:35:08;12.82;;;2.88;;
37905;SDS011;23739;51.448;6.674;2023-09-19T01:37:37;10.15;;;2.50;;
37905;SDS011;23739;51.448;6.674;2023-09-19T01:40:07;14.30;;;2.92;;
37905;SDS011;23739;51.448;6.674;2023-09-19T01:47:54;15.10;;;2.17;;
37905;SDS011;23739;51.448;6.674;2023-09-19T01:53:05;9.48;;;1.88;;
37905;SDS011;23739;51.448;6.674;2023-09-19T01:55:36;9.35;;;2.90;;
37905;SDS011;23739;51.448;6.674;2023-09-19T02:00:41;9.85;;;2.28;;
37905;SDS011;23739;51.448;6.674;2023-09-19T02:03:09;11.88;;;2.47;;
37905;SDS011;23739;51.448;6.674;2023-09-19T02:05:35;12.98;;;2.63;;
37905;SDS011;23739;51.448;6.674;2023-09-19T02:08:01;9.73;;;2.90;;
37905;SDS011;23739;51.448;6.674;2023-09-19T02:10:27;9.82;;;2.05;;
37905;SDS011;23739;51.448;6.674;2023-09-19T02:12:54;9.93;;;2.65;;
37905;SDS011;23739;51.448;6.674;2023-09-19T02:15:20;10.95;;;3.03;;
37905;SDS011;23739;51.448;6.674;2023-09-19T02:17:47;6.45;;;1.73;;
37905;SDS011;23739;51.448;6.674;2023-09-19T02:20:13;8.32;;;1.92;;
37905;SDS011;23739;51.448;6.674;2023-09-19T02:22:43;7.63;;;2.22;;
37905;SDS011;23739;51.448;6.674;2023-09-19T02:25:09;12.50;;;3.05;;
37905;SDS011;23739;51.448;6.674;2023-09-19T02:27:36;14.43;;;2.38;;
37905;SDS011;23739;51.448;6.674;2023-09-19T02:30:02;7.80;;;2.25;;
37905;SDS011;23739;51.448;6.674;2023-09-19T02:32:29;9.23;;;2.20;;
37905;SDS011;23739;51.448;6.674;2023-09-19T02:34:56;9.90;;;2.17;;
37905;SDS011;23739;51.448;6.674;2023-09-19T02:37:23;11.75;;;2.47;;
37905;SDS011;23739;51.448;6.674;2023-09-19T02:39:49;7.88;;;1.95;;
37905;SDS011;23739;51.448;6.674;2023-09-19T02:42:15;8.13;;;2.20;;
37905;SDS011;23739;51.448;6.674;2023-09-19T02:44:41;11.93;;;2.72;;
37905;SDS011;23739;51.448;6.674;2023-09-19T02:47:08;8.57;;;2.25;;
37905;SDS011;23739;51.448;6.674;2023-09-19T02:49:34;13.18;;;2.20;;
37905;SDS011;23739;51.448;6.674;2023-09-19T02:52:01;11.68;;;2.55;;
37905;SDS011;23739;51.448;6.674;2023-09-19T02:54:28;9.98;;;2.20;;
37905;SDS011;23739;51.448;6.674;2023-09-19T02:56:54;8.18;;;1.83;;
37905;SDS011;23739;51.448;6.674;2023-09-19T02:59:21;8.07;;;2.35;;
37905;SDS011;23739;51.448;6.674;2023-09-19T03:01:47;11.27;;;2.95;;
37905;SDS011;23739;51.448;6.674;2023-09-19T03:04:13;9.27;;;1.88;;
37905;SDS011;23739;51.448;6.674;2023-09-19T03:06:45;8.80;;;1.80;;
37905;SDS011;23739;51.448;6.674;2023-09-19T03:09:11;8.75;;;2.65;;
37905;SDS011;23739;51.448;6.674;2023-09-19T03:11:38;9.18;;;3.20;;
37905;SDS011;23739;51.448;6.674;2023-09-19T03:14:05;11.70;;;2.42;;
37905;SDS011;23739;51.448;6.674;2023-09-19T03:16:31;10.25;;;1.90;;
37905;SDS011;23739;51.448;6.674;2023-09-19T03:18:58;4.57;;;1.60;;
37905;SDS011;23739;51.448;6.674;2023-09-19T03:21:30;7.47;;;2.60;;
37905;SDS011;23739;51.448;6.674;2023-09-19T03:23:56;9.80;;;3.05;;
37905;SDS011;23739;51.448;6.674;2023-09-19T03:26:22;8.63;;;2.05;;
37905;SDS011;23739;51.448;6.674;2023-09-19T03:28:51;13.07;;;3.05;;
37905;SDS011;23739;51.448;6.674;2023-09-19T03:31:17;12.07;;;2.22;;
37905;SDS011;23739;51.448;6.674;2023-09-19T03:33:44;12.95;;;3.03;;
37905;SDS011;23739;51.448;6.674;2023-09-19T03:36:10;10.43;;;2.33;;
37905;SDS011;23739;51.448;6.674;2023-09-19T03:38:38;10.73;;;1.95;;
37905;SDS011;23739;51.448;6.674;2023-09-19T03:41:04;13.50;;;3.17;;
37905;SDS011;23739;51.448;6.674;2023-09-19T03:43:31;11.70;;;3.10;;
37905;SDS011;23739;51.448;6.674;2023-09-19T03:46:01;11.55;;;2.08;;
37905;SDS011;23739;51.448;6.674;2023-09-19T03:48:29;9.60;;;2.35;;
37905;SDS011;23739;51.448;6.674;2023-09-19T03:50:55;8.77;;;2.17;;
37905;SDS011;23739;51.448;6.674;2023-09-19T03:53:22;8.00;;;3.08;;
37905;SDS011;23739;51.448;6.674;2023-09-19T03:55:48;8.80;;;2.67;;
37905;SDS011;23739;51.448;6.674;2023-09-19T03:58:15;14.45;;;3.15;;
37905;SDS011;23739;51.448;6.674;2023-09-19T04:00:41;8.98;;;2.90;;
37905;SDS011;23739;51.448;6.674;2023-09-19T04:03:07;11.25;;;2.67;;
37905;SDS011;23739;51.448;6.674;2023-09-19T04:05:33;11.88;;;2.88;;
37905;SDS011;23739;51.448;6.674;2023-09-19T04:08:00;8.70;;;2.22;;
37905;SDS011;23739;51.448;6.674;2023-09-19T04:10:26;9.90;;;2.80;;
37905;SDS011;23739;51.448;6.674;2023-09-19T04:12:53;13.23;;;2.75;;
37905;SDS011;23739;51.448;6.674;2023-09-19T04:15:22;8.07;;;2.20;;
37905;SDS011;23739;51.448;6.674;2023-09-19T04:17:52;5.85;;;1.98;;
37905;SDS011;23739;51.448;6.674;2023-09-19T04:20:18;13.40;;;2.30;;
37905;SDS011;23739;51.448;6.674;2023-09-19T04:22:45;6.97;;;1.67;;
37905;SDS011;23739;51.448;6.674;2023-09-19T04:25:12;9.50;;;1.90;;
37905;SDS011;23739;51.448;6.674;2023-09-19T04:27:38;10.60;;;2.30;;
37905;SDS011;23739;51.448;6.674;2023-09-19T04:30:06;12.40;;;2.05;;
37905;SDS011;23739;51.448;6.674;2023-09-19T04:32:36;8.10;;;2.03;;
37905;SDS011;23739;51.448;6.674;2023-09-19T04:35:05;8.05;;;1.67;;
37905;SDS011;23739;51.448;6.674;2023-09-19T04:37:42;10.95;;;2.25;;
37905;SDS011;23739;51.448;6.674;2023-09-19T04:40:08;10.77;;;2.95;;
37905;SDS011;23739;51.448;6.674;2023-09-19T04:42:39;9.35;;;2.95;;
37905;SDS011;23739;51.448;6.674;2023-09-19T04:45:06;7.80;;;2.40;;
37905;SDS011;23739;51.448;6.674;2023-09-19T04:47:32;10.93;;;3.25;;
37905;SDS011;23739;51.448;6.674;2023-09-19T04:50:03;9.73;;;2.45;;
37905;SDS011;23739;51.448;6.674;2023-09-19T04:52:30;11.20;;;2.35;;
37905;SDS011;23739;51.448;6.674;2023-09-19T04:54:56;8.38;;;2.25;;
37905;SDS011;23739;51.448;6.674;2023-09-19T04:57:22;10.27;;;2.42;;
37905;SDS011;23739;51.448;6.674;2023-09-19T04:59:50;8.23;;;2.47;;
37905;SDS011;23739;51.448;6.674;2023-09-19T05:02:16;10.07;;;2.28;;
37905;SDS011;23739;51.448;6.674;2023-09-19T05:04:42;6.55;;;2.22;;
37905;SDS011;23739;51.448;6.674;2023-09-19T05:07:09;9.50;;;2.72;;
37905;SDS011;23739;51.448;6.674;2023-09-19T05:09:38;8.77;;;2.85;;
37905;SDS011;23739;51.448;6.674;2023-09-19T05:12:04;13.43;;;2.45;;
37905;SDS011;23739;51.448;6.674;2023-09-19T05:14:33;11.63;;;2.75;;
37905;SDS011;23739;51.448;6.674;2023-09-19T05:17:00;7.57;;;2.08;;
37905;SDS011;23739;51.448;6.674;2023-09-19T05:19:27;6.55;;;1.95;;
37905;SDS011;23739;51.448;6.674;2023-09-19T05:21:54;11.75;;;2.08;;
37905;SDS011;23739;51.448;6.674;2023-09-19T05:24:20;12.63;;;2.55;;
37905;SDS011;23739;51.448;6.674;2023-09-19T05:26:51;13.77;;;2.67;;
37905;SDS011;23739;51.448;6.674;2023-09-19T05:29:17;9.65;;;3.13;;
37905;SDS011;23739;51.448;6.674;2023-09-19T05:31:43;9.70;;;2.28;;
37905;SDS011;23739;51.448;6.674;2023-09-19T05:34:09;11.98;;;2.42;;
37905;SDS011;23739;51.448;6.674;2023-09-19T05:36:36;9.43;;;2.88;;
37905;SDS011;23739;51.448;6.674;2023-09-19T05:39:03;6.85;;;2.08;;
37905;SDS011;23739;51.448;6.674;2023-09-19T05:41:32;6.78;;;2.17;;
37905;SDS011;23739;51.448;6.674;2023-09-19T05:43:59;10.75;;;2.35;;
37905;SDS011;23739;51.448;6.674;2023-09-19T05:46:26;11.43;;;3.55;;
37905;SDS011;23739;51.448;6.674;2023-09-19T05:48:54;20.40;;;3.00;;
37905;SDS011;23739;51.448;6.674;2023-09-19T05:51:22;10.38;;;2.40;;
37905;SDS011;23739;51.448;6.674;2023-09-19T05:53:48;13.63;;;3.40;;
37905;SDS011;23739;51.448;6.674;2023-09-19T05:56:17;12.18;;;2.85;;
37905;SDS011;23739;51.448;6.674;2023-09-19T05:58:44;9.55;;;2.05;;
37905;SDS011;23739;51.448;6.674;2023-09-19T06:01:10;11.48;;;2.80;;
37905;SDS011;23739;51.448;6.674;2023-09-19T06:03:36;9.85;;;2.80;;
37905;SDS011;23739;51.448;6.674;2023-09-19T06:06:02;11.23;;;2.03;;
37905;SDS011;23739;51.448;6.674;2023-09-19T06:08:31;12.70;;;2.70;;
37905;SDS011;23739;51.448;6.674;2023-09-19T06:10:58;11.70;;;2.67;;
37905;SDS011;23739;51.448;6.674;2023-09-19T06:13:27;8.43;;;2.55;;
37905;SDS011;23739;51.448;6.674;2023-09-19T06:15:54;9.05;;;1.85;;
37905;SDS011;23739;51.448;6.674;2023-09-19T06:18:21;15.02;;;3.10;;
37905;SDS011;23739;51.448;6.674;2023-09-19T06:20:51;8.93;;;1.70;;
37905;SDS011;23739;51.448;6.674;2023-09-19T06:23:18;10.50;;;2.25;;
37905;SDS011;23739;51.448;6.674;2023-09-19T06:25:45;9.75;;;2.50;;
37905;SDS011;23739;51.448;6.674;2023-09-19T06:28:11;8.27;;;3.30;;
37905;SDS011;23739;51.448;6.674;2023-09-19T06:30:40;8.77;;;2.20;;
37905;SDS011;23739;51.448;6.674;2023-09-19T06:33:07;7.82;;;2.30;;
37905;SDS011;23739;51.448;6.674;2023-09-19T06:35:33;6.43;;;2.17;;
37905;SDS011;23739;51.448;6.674;2023-09-19T06:38:03;10.93;;;2.85;;
37905;SDS011;23739;51.448;6.674;2023-09-19T06:40:30;9.18;;;2.90;;
37905;SDS011;23739;51.448;6.674;2023-09-19T06:43:00;11.88;;;2.15;;
37905;SDS011;23739;51.448;6.674;2023-09-19T06:45:29;8.07;;;2.70;;
37905;SDS011;23739;51.448;6.674;2023-09-19T06:47:57;16.80;;;3.65;;
37905;SDS011;23739;51.448;6.674;2023-09-19T06:50:25;14.07;;;2.95;;
37905;SDS011;23739;51.448;6.674;2023-09-19T06:52:53;7.32;;;2.13;;
37905;SDS011;23739;51.448;6.674;2023-09-19T06:55:20;13.18;;;2.30;;
37905;SDS011;23739;51.448;6.674;2023-09-19T06:57:50;11.27;;;3.15;;
37905;SDS011;23739;51.448;6.674;2023-09-19T07:00:37;18.65;;;2.90;;
37905;SDS011;23739;51.448;6.674;2023-09-19T07:05:33;13.82;;;2.42;;
37905;SDS011;23739;51.448;6.674;2023-09-19T07:08:08;6.93;;;2.40;;
37905;SDS011;23739;51.448;6.674;2023-09-19T07:10:38;10.57;;;2.00;;
37905;SDS011;23739;51.448;6.674;2023-09-19T07:13:14;10.45;;;2.40;;
37905;SDS011;23739;51.448;6.674;2023-09-19T07:15:45;11.48;;;3.47;;
37905;SDS011;23739;51.448;6.674;2023-09-19T07:18:31;13.55;;;2.08;;
37905;SDS011;23739;51.448;6.674;2023-09-19T07:20:58;11.02;;;3.13;;
37905;SDS011;23739;51.448;6.674;2023-09-19T07:23:30;10.88;;;2.08;;
37905;SDS011;23739;51.448;6.674;2023-09-19T07:26:00;6.80;;;2.08;;
37905;SDS011;23739;51.448;6.674;2023-09-19T07:28:27;8.85;;;2.00;;
37905;SDS011;23739;51.448;6.674;2023-09-19T07:30:56;11.43;;;2.20;;
37905;SDS011;23739;51.448;6.674;2023-09-19T07:33:22;13.02;;;3.08;;
37905;SDS011;23739;51.448;6.674;2023-09-19T07:35:51;11.90;;;3.03;;
37905;SDS011;23739;51.448;6.674;2023-09-19T07:38:17;14.23;;;3.13;;
37905;SDS011;23739;51.448;6.674;2023-09-19T07:40:45;12.43;;;2.25;;
37905;SDS011;23739;51.448;6.674;2023-09-19T07:43:11;8.05;;;2.13;;
37905;SDS011;23739;51.448;6.674;2023-09-19T07:45:37;15.82;;;2.25;;
37905;SDS011;23739;51.448;6.674;2023-09-19T07:48:03;9.50;;;2.03;;
37905;SDS011;23739;51.448;6.674;2023-09-19T07:50:33;13.27;;;2.25;;
37905;SDS011;23739;51.448;6.674;2023-09-19T07:53:01;9.27;;;2.42;;
37905;SDS011;23739;51.448;6.674;2023-09-19T07:55:30;10.05;;;1.95;;
37905;SDS011;23739;51.448;6.674;2023-09-19T07:57:59;10.10;;;2.58;;
37905;SDS011;23739;51.448;6.674;2023-09-19T08:00:33;14.07;;;1.98;;
37905;SDS011;23739;51.448;6.674;2023-09-19T08:03:00;10.75;;;3.35;;
37905;SDS011;23739;51.448;6.674;2023-09-19T08:05:29;8.07;;;1.88;;
37905;SDS011;23739;51.448;6.674;2023-09-19T08:07:55;10.50;;;2.65;;
37905;SDS011;23739;51.448;6.674;2023-09-19T08:10:21;7.72;;;1.90;;
37905;SDS011;23739;51.448;6.674;2023-09-19T08:12:48;6.90;;;2.30;;
37905;SDS011;23739;51.448;6.674;2023-09-19T08:17:40;11.25;;;2.20;;
37905;SDS011;23739;51.448;6.674;2023-09-19T08:20:07;10.32;;;2.30;;
37905;SDS011;23739;51.448;6.674;2023-09-19T08:22:41;10.35;;;1.80;;
37905;SDS011;23739;51.448;6.674;2023-09-19T08:25:07;12.77;;;2.50;;
37905;SDS011;23739;51.448;6.674;2023-09-19T08:27:37;13.25;;;2.17;;
37905;SDS011;23739;51.448;6.674;2023-09-19T08:30:03;11.85;;;1.95;;
37905;SDS011;23739;51.448;6.674;2023-09-19T08:32:29;9.98;;;2.83;;
37905;SDS011;23739;51.448;6.674;2023-09-19T08:34:55;9.63;;;2.22;;
37905;SDS011;23739;51.448;6.674;2023-09-19T08:37:24;13.18;;;2.15;;
37905;SDS011;23739;51.448;6.674;2023-09-19T08:39:58;9.30;;;2.42;;
37905;SDS011;23739;51.448;6.674;2023-09-19T08:42:24;11.88;;;2.88;;
37905;SDS011;23739;51.448;6.674;2023-09-19T08:44:50;9.00;;;1.80;;
37905;SDS011;23739;51.448;6.674;2023-09-19T08:47:18;10.35;;;2.20;;
37905;SDS011;23739;51.448;6.674;2023-09-19T08:52:22;8.55;;;2.03;;
37905;SDS011;23739;51.448;6.674;2023-09-19T08:54:57;10.27;;;2.28;;
37905;SDS011;23739;51.448;6.674;2023-09-19T08:57:29;7.78;;;2.60;;
37905;SDS011;23739;51.448;6.674;2023-09-19T09:00:00;12.32;;;2.53;;
37905;SDS011;23739;51.448;6.674;2023-09-19T09:02:30;9.27;;;1.80;;
37905;SDS011;23739;51.448;6.674;2023-09-19T09:04:59;10.38;;;1.85;;
37905;SDS011;23739;51.448;6.674;2023-09-19T09:07:25;12.25;;;2.20;;
37905;SDS011;23739;51.448;6.674;2023-09-19T09:09:53;12.60;;;2.83;;
37905;SDS011;23739;51.448;6.674;2023-09-19T09:12:20;9.32;;;1.98;;
37905;SDS011;23739;51.448;6.674;2023-09-19T09:14:46;10.30;;;1.90;;
37905;SDS011;23739;51.448;6.674;2023-09-19T09:17:21;10.60;;;2.17;;
37905;SDS011;23739;51.448;6.674;2023-09-19T09:19:53;16.33;;;2.67;;
37905;SDS011;23739;51.448;6.674;2023-09-19T09:22:28;9.63;;;2.38;;
37905;SDS011;23739;51.448;6.674;2023-09-19T09:25:00;7.55;;;1.58;;
37905;SDS011;23739;51.448;6.674;2023-09-19T09:27:30;10.18;;;2.53;;
37905;SDS011;23739;51.448;6.674;2023-09-19T09:30:03;7.68;;;2.08;;
37905;SDS011;23739;51.448;6.674;2023-09-19T09:35:06;8.48;;;2.88;;
37905;SDS011;23739;51.448;6.674;2023-09-19T09:37:39;8.55;;;1.88;;
37905;SDS011;23739;51.448;6.674;2023-09-19T09:40:09;11.93;;;1.88;;
37905;SDS011;23739;51.448;6.674;2023-09-19T09:42:47;10.57;;;1.80;;
37905;SDS011;23739;51.448;6.674;2023-09-19T09:45:24;11.75;;;2.97;;
37905;SDS011;23739;51.448;6.674;2023-09-19T09:47:59;12.02;;;2.03;;
37905;SDS011;23739;51.448;6.674;2023-09-19T09:50:32;9.50;;;2.13;;
37905;SDS011;23739;51.448;6.674;2023-09-19T09:53:20;10.77;;;2.47;;
37905;SDS011;23739;51.448;6.674;2023-09-19T09:58:25;13.40;;;2.42;;
37905;SDS011;23739;51.448;6.674;2023-09-19T10:00:57;7.32;;;1.60;;
37905;SDS011;23739;51.448;6.674;2023-09-19T10:03:35;9.18;;;2.00;;
37905;SDS011;23739;51.448;6.674;2023-09-19T10:06:15;10.88;;;1.70;;
37905;SDS011;23739;51.448;6.674;2023-09-19T10:09:08;10.75;;;2.25;;
37905;SDS011;23739;51.448;6.674;2023-09-19T10:11:41;10.38;;;2.30;;
37905;SDS011;23739;51.448;6.674;2023-09-19T10:14:11;8.07;;;2.08;;
37905;SDS011;23739;51.448;6.674;2023-09-19T10:16:40;12.10;;;2.45;;
37905;SDS011;23739;51.448;6.674;2023-09-19T10:19:14;8.75;;;2.05;;
37905;SDS011;23739;51.448;6.674;2023-09-19T10:21:41;8.68;;;2.20;;
37905;SDS011;23739;51.448;6.674;2023-09-19T10:24:08;9.00;;;2.42;;
37905;SDS011;23739;51.448;6.674;2023-09-19T10:26:36;9.90;;;2.50;;
37905;SDS011;23739;51.448;6.674;2023-09-19T10:29:02;10.75;;;2.50;;
37905;SDS011;23739;51.448;6.674;2023-09-19T10:31:32;7.00;;;2.03;;
37905;SDS011;23739;51.448;6.674;2023-09-19T10:34:02;9.23;;;2.22;;
37905;SDS011;23739;51.448;6.674;2023-09-19T10:36:33;6.57;;;2.05;;
37905;SDS011;23739;51.448;6.674;2023-09-19T10:39:00;7.20;;;2.20;;
37905;SDS011;23739;51.448;6.674;2023-09-19T10:41:32;11.70;;;2.27;;
37905;SDS011;23739;51.448;6.674;2023-09-19T10:44:08;4.25;;;2.83;;
37905;SDS011;23739;51.448;6.674;2023-09-19T10:46:37;6.95;;;1.77;;
37905;SDS011;23739;51.448;6.674;2023-09-19T10:49:03;9.40;;;1.80;;
37905;SDS011;23739;51.448;6.674;2023-09-19T10:51:39;11.55;;;2.35;;
37905;SDS011;23739;51.448;6.674;2023-09-19T10:54:06;7.05;;;2.22;;
37905;SDS011;23739;51.448;6.674;2023-09-19T10:56:38;11.65;;;2.03;;
37905;SDS011;23739;51.448;6.674;2023-09-19T10:59:11;8.60;;;1.73;;
37905;SDS011;23739;51.448;6.674;2023-09-19T11:01:45;6.35;;;3.30;;
37905;SDS011;23739;51.448;6.674;2023-09-19T11:07:03;9.88;;;2.20;;
37905;SDS011;23739;51.448;6.674;2023-09-19T11:09:52;9.02;;;2.25;;
37905;SDS011;23739;51.448;6.674;2023-09-19T11:15:08;9.15;;;2.20;;
37905;SDS011;23739;51.448;6.674;2023-09-19T11:28:37;8.00;;;1.88;;
37905;SDS011;23739;51.448;6.674;2023-09-19T11:30:47;8.32;;;2.25;;
37905;SDS011;23739;51.448;6.674;2023-09-19T11:33:26;14.85;;;2.58;;
37905;SDS011;23739;51.448;6.674;2023-09-19T11:46:31;10.05;;;3.13;;
37905;SDS011;23739;51.448;6.674;2023-09-19T11:49:06;7.57;;;2.00;;
37905;SDS011;23739;51.448;6.674;2023-09-19T11:51:39;8.00;;;1.80;;
37905;SDS011;23739;51.448;6.674;2023-09-19T11:54:10;7.15;;;2.00;;
37905;SDS011;23739;51.448;6.674;2023-09-19T11:56:52;7.88;;;2.35;;
37905;SDS011;23739;51.448;6.674;2023-09-19T11:59:25;6.85;;;2.42;;
37905;SDS011;23739;51.448;6.674;2023-09-19T12:04:43;5.90;;;1.50;;
37905;SDS011;23739;51.448;6.674;2023-09-19T12:07:18;7.25;;;2.28;;
37905;SDS011;23739;51.448;6.674;2023-09-19T12:09:50;9.85;;;2.45;;
37905;SDS011;23739;51.448;6.674;2023-09-19T12:12:20;7.93;;;2.03;;
37905;SDS011;23739;51.448;6.674;2023-09-19T12:14:53;7.53;;;1.67;;
37905;SDS011;23739;51.448;6.674;2023-09-19T12:17:19;7.40;;;1.80;;
37905;SDS011;23739;51.448;6.674;2023-09-19T12:20:02;6.63;;;1.50;;
37905;SDS011;23739;51.448;6.674;2023-09-19T12:22:46;8.65;;;2.80;;
37905;SDS011;23739;51.448;6.674;2023-09-19T12:25:17;8.30;;;2.55;;
37905;SDS011;23739;51.448;6.674;2023-09-19T12:27:49;8.65;;;1.73;;
37905;SDS011;23739;51.448;6.674;2023-09-19T12:30:18;9.48;;;2.35;;
37905;SDS011;23739;51.448;6.674;2023-09-19T12:32:51;10.40;;;2.22;;
37905;SDS011;23739;51.448;6.674;2023-09-19T12:35:26;9.63;;;1.55;;
37905;SDS011;23739;51.448;6.674;2023-09-19T12:37:54;10.32;;;2.13;;
37905;SDS011;23739;51.448;6.674;2023-09-19T12:40:21;5.97;;;1.67;;
37905;SDS011;23739;51.448;6.674;2023-09-19T12:42:47;3.42;;;1.40;;
37905;SDS011;23739;51.448;6.674;2023-09-19T12:45:19;5.75;;;1.42;;
37905;SDS011;23739;51.448;6.674;2023-09-19T12:50:58;4.18;;;1.33;;
37905;SDS011;23739;51.448;6.674;2023-09-19T12:53:25;9.95;;;1.88;;
37905;SDS011;23739;51.448;6.674;2023-09-19T12:56:00;9.63;;;1.90;;
37905;SDS011;23739;51.448;6.674;2023-09-19T12:58:26;8.05;;;1.52;;
37905;SDS011;23739;51.448;6.674;2023-09-19T13:00:55;3.53;;;1.35;;
37905;SDS011;23739;51.448;6.674;2023-09-19T13:05:56;9.18;;;1.55;;
37905;SDS011;23739;51.448;6.674;2023-09-19T13:08:29;5.47;;;1.10;;
37905;SDS011;23739;51.448;6.674;2023-09-19T13:13:35;4.70;;;1.10;;
37905;SDS011;23739;51.448;6.674;2023-09-19T13:16:02;2.22;;;1.30;;
37905;SDS011;23739;51.448;6.674;2023-09-19T13:18:40;3.03;;;1.17;;
37905;SDS011;23739;51.448;6.674;2023-09-19T13:21:14;5.75;;;1.35;;
37905;SDS011;23739;51.448;6.674;2023-09-19T13:23:49;4.93;;;1.00;;
37905;SDS011;23739;51.448;6.674;2023-09-19T13:26:18;9.32;;;1.80;;
37905;SDS011;23739;51.448;6.674;2023-09-19T13:28:45;5.75;;;1.23;;
37905;SDS011;23739;51.448;6.674;2023-09-19T13:31:13;8.38;;;1.65;;
37905;SDS011;23739;51.448;6.674;2023-09-19T13:33:42;6.72;;;1.00;;
37905;SDS011;23739;51.448;6.674;2023-09-19T13:36:10;3.47;;;1.30;;
37905;SDS011;23739;51.448;6.674;2023-09-19T13:38:40;3.70;;;0.93;;
37905;SDS011;23739;51.448;6.674;2023-09-19T13:41:09;5.78;;;1.30;;
37905;SDS011;23739;51.448;6.674;2023-09-19T13:43:35;3.00;;;1.05;;
37905;SDS011;23739;51.448;6.674;2023-09-19T13:46:02;5.63;;;1.02;;
37905;SDS011;23739;51.448;6.674;2023-09-19T13:48:28;7.22;;;1.20;;
37905;SDS011;23739;51.448;6.674;2023-09-19T13:50:58;3.30;;;0.90;;
37905;SDS011;23739;51.448;6.674;2023-09-19T13:53:25;5.70;;;1.80;;
37905;SDS011;23739;51.448;6.674;2023-09-19T13:55:53;5.75;;;1.25;;
37905;SDS011;23739;51.448;6.674;2023-09-19T13:58:37;3.15;;;0.95;;
37905;SDS011;23739;51.448;6.674;2023-09-19T14:01:03;6.70;;;1.40;;
37905;SDS011;23739;51.448;6.674;2023-09-19T14:03:29;6.88;;;1.13;;
37905;SDS011;23739;51.448;6.674;2023-09-19T14:05:56;1.70;;;0.57;;
37905;SDS011;23739;51.448;6.674;2023-09-19T14:08:25;3.75;;;1.10;;
37905;SDS011;23739;51.448;6.674;2023-09-19T14:10:55;5.25;;;1.00;;
37905;SDS011;23739;51.448;6.674;2023-09-19T14:13:24;7.32;;;1.52;;
37905;SDS011;23739;51.448;6.674;2023-09-19T14:15:53;3.08;;;0.85;;
37905;SDS011;23739;51.448;6.674;2023-09-19T14:18:19;3.38;;;1.60;;
37905;SDS011;23739;51.448;6.674;2023-09-19T14:20:47;5.65;;;1.02;;
37905;SDS011;23739;51.448;6.674;2023-09-19T14:23:13;3.90;;;0.95;;
37905;SDS011;23739;51.448;6.674;2023-09-19T14:25:39;6.40;;;0.88;;
37905;SDS011;23739;51.448;6.674;2023-09-19T14:28:07;4.63;;;0.98;;
37905;SDS011;23739;51.448;6.674;2023-09-19T14:30:33;3.47;;;0.90;;
37905;SDS011;23739;51.448;6.674;2023-09-19T14:33:02;5.53;;;0.95;;
37905;SDS011;23739;51.448;6.674;2023-09-19T14:35:28;2.92;;;0.70;;
37905;SDS011;23739;51.448;6.674;2023-09-19T14:37:57;3.38;;;0.75;;
37905;SDS011;23739;51.448;6.674;2023-09-19T14:40:23;4.53;;;0.85;;
37905;SDS011;23739;51.448;6.674;2023-09-19T14:42:50;3.92;;;0.90;;
37905;SDS011;23739;51.448;6.674;2023-09-19T14:45:17;6.40;;;0.90;;
37905;SDS011;23739;51.448;6.674;2023-09-19T14:47:47;5.35;;;1.08;;
37905;SDS011;23739;51.448;6.674;2023-09-19T14:50:13;2.47;;;0.77;;
37905;SDS011;23739;51.448;6.674;2023-09-19T14:52:41;1.60;;;0.80;;
37905;SDS011;23739;51.448;6.674;2023-09-19T14:55:19;2.08;;;0.60;;
37905;SDS011;23739;51.448;6.674;2023-09-19T14:57:48;3.33;;;0.70;;
37905;SDS011;23739;51.448;6.674;2023-09-19T15:00:18;2.10;;;1.00;;
37905;SDS011;23739;51.448;6.674;2023-09-19T15:02:53;2.38;;;0.88;;
37905;SDS011;23739;51.448;6.674;2023-09-19T15:05:21;2.45;;;0.75;;
37905;SDS011;23739;51.448;6.674;2023-09-19T15:07:47;5.20;;;0.80;;
37905;SDS011;23739;51.448;6.674;2023-09-19T15:10:14;3.97;;;1.08;;
37905;SDS011;23739;51.448;6.674;2023-09-19T15:12:41;2.75;;;0.60;;
37905;SDS011;23739;51.448;6.674;2023-09-19T15:15:08;2.30;;;0.50;;
37905;SDS011;23739;51.448;6.674;2023-09-19T15:17:35;7.80;;;0.80;;
37905;SDS011;23739;51.448;6.674;2023-09-19T15:20:10;4.68;;;0.98;;
37905;SDS011;23739;51.448;6.674;2023-09-19T15:22:39;3.22;;;0.80;;
37905;SDS011;23739;51.448;6.674;2023-09-19T15:25:05;3.55;;;0.63;;
37905;SDS011;23739;51.448;6.674;2023-09-19T15:27:32;3.33;;;0.47;;
37905;SDS011;23739;51.448;6.674;2023-09-19T15:29:59;4.60;;;0.73;;
37905;SDS011;23739;51.448;6.674;2023-09-19T15:32:28;3.75;;;0.70;;
37905;SDS011;23739;51.448;6.674;2023-09-19T15:34:54;2.20;;;0.70;;
37905;SDS011;23739;51.448;6.674;2023-09-19T15:37:25;4.55;;;1.13;;
37905;SDS011;23739;51.448;6.674;2023-09-19T15:39:59;2.20;;;0.50;;
37905;SDS011;23739;51.448;6.674;2023-09-19T15:42:25;1.38;;;0.90;;
37905;SDS011;23739;51.448;6.674;2023-09-19T15:44:51;2.75;;;1.00;;
37905;SDS011;23739;51.448;6.674;2023-09-19T15:47:20;4.63;;;0.70;;
37905;SDS011;23739;51.448;6.674;2023-09-19T15:49:49;4.45;;;1.13;;
37905;SDS011;23739;51.448;6.674;2023-09-19T15:52:18;4.15;;;0.80;;
37905;SDS011;23739;51.448;6.674;2023-09-19T15:54:45;3.08;;;0.65;;
37905;SDS011;23739;51.448;6.674;2023-09-19T15:57:11;2.92;;;1.00;;
37905;SDS011;23739;51.448;6.674;2023-09-19T15:59:37;3.22;;;1.00;;
37905;SDS011;23739;51.448;6.674;2023-09-19T16:02:03;1.73;;;0.80;;
37905;SDS011;23739;51.448;6.674;2023-09-19T16:04:30;3.15;;;0.90;;
37905;SDS011;23739;51.448;6.674;2023-09-19T16:07:07;3.78;;;0.50;;